Mid Hudson, NY (12555)

5:27 PM EDT on August 24, 2016 (GMT -0400)
New Windsor Tower | | Change Station

Elev 151 ft 41.49 °N, 74.03 °W | Updated 3 minutes ago

Partly Cloudy
Partly Cloudy
84.2 °F
Feels Like 84 °F
N
3.0
Wind Variable Wind from North
Gusts 8.0 mph

Today
High -- | Low -- °F
--% Chance of Precip.
Yesterday
High -- | Low -- °F
Precip. -- in
Pressure 30.19 in
Visibility 20.0 miles
Clouds Few 5000 ft
Heat Index 84 °F
Dew Point 60 °F
Humidity 44%
Rainfall in
Snow Depth Not available.
6:14 AM 7:41 PM
Waning Gibbous, 53% visible
METAR KSWF 242045Z 26005KT 20SM FEW050 28/17 A3019
Pressure 30.19 in
Visibility 20.0 miles
Clouds Few 5000 ft
Heat Index 84 °F
Dew Point 60 °F
Humidity 44%
Rainfall in
Snow Depth Not available.
6:14 AM 7:41 PM
Waning Gibbous, 53% visible
METAR KSWF 242045Z 26005KT 20SM FEW050 28/17 A3019

10-Day Weather Forecast

Almanac

Astronomy

Aug. 24, 2016 Rise Set
Actual Time
Civil Twilight
Nautical Twilight
Astronomical Twilight
Moon
Length of Visible Light
Length of Day
Tomorrow will be .
, % of the Moon is Illuminated

Today's Extremes

State Highs State Lows

Community

WunderPhotos

Upload Photos

1,934,719 photos uploaded!

WunderBlog® & News

Nearby

Air Quality

  Air Quality AQ Index Pollutant
Not available.

Snow Depth

Station Depth Elevation

Earthquake Activity

City Distance Mag. Time & Date
Minimum magnitude displayed is 2.5.

Coastal Water Temperatures

Place Temperature

Stations

Nearby Weather Stations

Station Location Temp. Windchill Dew Point Humidity Wind Precip. Elev Updated Type
                   

Watches & Warnings

There are currently no watches in effect.